sensor_id;sensor_type;location;lat;lon;timestamp;P1;durP1;ratioP1;P2;durP2;ratioP2
18505;SDS011;9382;53.242;10.438;2023-02-15T00:01:25;80.87;;;37.87;;
18505;SDS011;9382;53.242;10.438;2023-02-15T00:03:51;84.60;;;40.37;;
18505;SDS011;9382;53.242;10.438;2023-02-15T00:06:18;77.23;;;37.73;;
18505;SDS011;9382;53.242;10.438;2023-02-15T00:08:46;84.43;;;40.13;;
18505;SDS011;9382;53.242;10.438;2023-02-15T00:11:14;115.53;;;48.97;;
18505;SDS011;9382;53.242;10.438;2023-02-15T00:14:02;106.47;;;46.53;;
18505;SDS011;9382;53.242;10.438;2023-02-15T00:16:29;84.47;;;40.10;;
18505;SDS011;9382;53.242;10.438;2023-02-15T00:18:56;85.40;;;40.40;;
18505;SDS011;9382;53.242;10.438;2023-02-15T00:21:26;87.20;;;39.63;;
18505;SDS011;9382;53.242;10.438;2023-02-15T00:23:55;77.43;;;37.00;;
18505;SDS011;9382;53.242;10.438;2023-02-15T00:26:22;83.43;;;37.97;;
18505;SDS011;9382;53.242;10.438;2023-02-15T00:28:48;80.07;;;37.93;;
18505;SDS011;9382;53.242;10.438;2023-02-15T00:31:15;82.10;;;37.63;;
18505;SDS011;9382;53.242;10.438;2023-02-15T00:33:42;79.93;;;36.77;;
18505;SDS011;9382;53.242;10.438;2023-02-15T00:36:09;88.10;;;38.03;;
18505;SDS011;9382;53.242;10.438;2023-02-15T00:38:36;77.30;;;35.23;;
18505;SDS011;9382;53.242;10.438;2023-02-15T00:41:05;76.93;;;36.37;;
18505;SDS011;9382;53.242;10.438;2023-02-15T00:43:34;76.93;;;35.90;;
18505;SDS011;9382;53.242;10.438;2023-02-15T00:46:02;75.07;;;35.40;;
18505;SDS011;9382;53.242;10.438;2023-02-15T00:48:30;77.20;;;35.93;;
18505;SDS011;9382;53.242;10.438;2023-02-15T00:50:58;98.37;;;36.27;;
18505;SDS011;9382;53.242;10.438;2023-02-15T00:53:25;79.33;;;37.27;;
18505;SDS011;9382;53.242;10.438;2023-02-15T00:55:53;78.50;;;36.93;;
18505;SDS011;9382;53.242;10.438;2023-02-15T00:58:21;84.77;;;36.87;;
18505;SDS011;9382;53.242;10.438;2023-02-15T01:00:48;83.40;;;36.13;;
18505;SDS011;9382;53.242;10.438;2023-02-15T01:03:16;81.23;;;35.33;;
18505;SDS011;9382;53.242;10.438;2023-02-15T01:05:43;83.97;;;36.00;;
18505;SDS011;9382;53.242;10.438;2023-02-15T01:08:10;88.93;;;35.63;;
18505;SDS011;9382;53.242;10.438;2023-02-15T01:10:37;74.37;;;34.33;;
18505;SDS011;9382;53.242;10.438;2023-02-15T01:13:04;80.37;;;33.97;;
18505;SDS011;9382;53.242;10.438;2023-02-15T01:15:33;68.40;;;33.50;;
18505;SDS011;9382;53.242;10.438;2023-02-15T01:18:00;73.73;;;33.57;;
18505;SDS011;9382;53.242;10.438;2023-02-15T01:20:27;70.17;;;32.70;;
18505;SDS011;9382;53.242;10.438;2023-02-15T01:22:56;105.33;;;35.90;;
18505;SDS011;9382;53.242;10.438;2023-02-15T01:25:23;69.80;;;34.40;;
18505;SDS011;9382;53.242;10.438;2023-02-15T01:27:51;82.50;;;34.67;;
18505;SDS011;9382;53.242;10.438;2023-02-15T01:30:18;84.07;;;37.03;;
18505;SDS011;9382;53.242;10.438;2023-02-15T01:32:46;82.50;;;36.03;;
18505;SDS011;9382;53.242;10.438;2023-02-15T01:35:12;93.97;;;36.67;;
18505;SDS011;9382;53.242;10.438;2023-02-15T01:37:39;91.70;;;38.00;;
18505;SDS011;9382;53.242;10.438;2023-02-15T01:40:08;86.87;;;38.73;;
18505;SDS011;9382;53.242;10.438;2023-02-15T01:42:38;87.63;;;39.37;;
18505;SDS011;9382;53.242;10.438;2023-02-15T01:45:05;93.57;;;37.50;;
18505;SDS011;9382;53.242;10.438;2023-02-15T01:47:47;84.43;;;38.00;;
18505;SDS011;9382;53.242;10.438;2023-02-15T01:50:20;81.80;;;38.37;;
18505;SDS011;9382;53.242;10.438;2023-02-15T01:52:52;85.17;;;38.33;;
18505;SDS011;9382;53.242;10.438;2023-02-15T01:55:25;83.10;;;38.77;;
18505;SDS011;9382;53.242;10.438;2023-02-15T01:57:56;88.87;;;37.37;;
18505;SDS011;9382;53.242;10.438;2023-02-15T02:00:23;86.87;;;40.00;;
18505;SDS011;9382;53.242;10.438;2023-02-15T02:02:52;82.40;;;38.47;;
18505;SDS011;9382;53.242;10.438;2023-02-15T02:05:20;85.77;;;38.10;;
18505;SDS011;9382;53.242;10.438;2023-02-15T02:07:48;82.43;;;37.07;;
18505;SDS011;9382;53.242;10.438;2023-02-15T02:10:18;92.50;;;39.13;;
18505;SDS011;9382;53.242;10.438;2023-02-15T02:12:48;81.53;;;38.47;;
18505;SDS011;9382;53.242;10.438;2023-02-15T02:15:17;87.93;;;35.70;;
18505;SDS011;9382;53.242;10.438;2023-02-15T02:17:52;85.07;;;36.90;;
18505;SDS011;9382;53.242;10.438;2023-02-15T02:23:49;80.93;;;36.70;;
18505;SDS011;9382;53.242;10.438;2023-02-15T02:32:46;94.60;;;35.73;;
18505;SDS011;9382;53.242;10.438;2023-02-15T02:35:26;97.30;;;34.10;;
18505;SDS011;9382;53.242;10.438;2023-02-15T02:38:00;78.17;;;34.43;;
18505;SDS011;9382;53.242;10.438;2023-02-15T02:40:35;85.03;;;34.80;;
18505;SDS011;9382;53.242;10.438;2023-02-15T02:43:13;89.30;;;33.87;;
18505;SDS011;9382;53.242;10.438;2023-02-15T02:45:46;89.23;;;35.00;;
18505;SDS011;9382;53.242;10.438;2023-02-15T02:48:20;69.27;;;31.50;;
18505;SDS011;9382;53.242;10.438;2023-02-15T02:50:50;72.80;;;31.50;;
18505;SDS011;9382;53.242;10.438;2023-02-15T02:53:16;71.10;;;32.17;;
18505;SDS011;9382;53.242;10.438;2023-02-15T02:55:44;74.37;;;32.33;;
18505;SDS011;9382;53.242;10.438;2023-02-15T02:58:14;72.67;;;32.80;;
18505;SDS011;9382;53.242;10.438;2023-02-15T03:00:47;73.50;;;31.90;;
18505;SDS011;9382;53.242;10.438;2023-02-15T03:03:18;67.50;;;30.90;;
18505;SDS011;9382;53.242;10.438;2023-02-15T03:05:50;71.07;;;32.77;;
18505;SDS011;9382;53.242;10.438;2023-02-15T03:08:20;67.80;;;29.43;;
18505;SDS011;9382;53.242;10.438;2023-02-15T03:10:53;69.80;;;30.97;;
18505;SDS011;9382;53.242;10.438;2023-02-15T03:13:22;62.80;;;29.60;;
18505;SDS011;9382;53.242;10.438;2023-02-15T03:15:49;73.23;;;29.17;;
18505;SDS011;9382;53.242;10.438;2023-02-15T03:18:38;78.77;;;29.20;;
18505;SDS011;9382;53.242;10.438;2023-02-15T03:21:07;64.30;;;28.87;;
18505;SDS011;9382;53.242;10.438;2023-02-15T03:23:47;74.37;;;30.13;;
18505;SDS011;9382;53.242;10.438;2023-02-15T03:26:16;63.77;;;29.83;;
18505;SDS011;9382;53.242;10.438;2023-02-15T03:28:45;69.43;;;29.60;;
18505;SDS011;9382;53.242;10.438;2023-02-15T03:31:13;70.57;;;28.73;;
18505;SDS011;9382;53.242;10.438;2023-02-15T03:33:44;63.67;;;28.87;;
18505;SDS011;9382;53.242;10.438;2023-02-15T03:36:17;74.37;;;30.13;;
18505;SDS011;9382;53.242;10.438;2023-02-15T03:38:49;69.87;;;29.37;;
18505;SDS011;9382;53.242;10.438;2023-02-15T03:41:24;74.50;;;30.43;;
18505;SDS011;9382;53.242;10.438;2023-02-15T03:43:54;71.70;;;28.20;;
18505;SDS011;9382;53.242;10.438;2023-02-15T03:46:25;67.53;;;29.30;;
18505;SDS011;9382;53.242;10.438;2023-02-15T03:48:57;103.90;;;28.00;;
18505;SDS011;9382;53.242;10.438;2023-02-15T03:51:28;64.67;;;27.90;;
18505;SDS011;9382;53.242;10.438;2023-02-15T03:53:59;69.73;;;26.97;;
18505;SDS011;9382;53.242;10.438;2023-02-15T03:56:27;65.97;;;26.47;;
18505;SDS011;9382;53.242;10.438;2023-02-15T03:58:54;57.00;;;27.17;;
18505;SDS011;9382;53.242;10.438;2023-02-15T04:01:39;56.57;;;26.33;;
18505;SDS011;9382;53.242;10.438;2023-02-15T04:04:26;63.83;;;25.70;;
18505;SDS011;9382;53.242;10.438;2023-02-15T04:06:58;63.10;;;25.27;;
18505;SDS011;9382;53.242;10.438;2023-02-15T04:09:24;60.80;;;24.37;;
18505;SDS011;9382;53.242;10.438;2023-02-15T04:12:09;70.37;;;25.57;;
18505;SDS011;9382;53.242;10.438;2023-02-15T04:14:36;56.57;;;25.63;;
18505;SDS011;9382;53.242;10.438;2023-02-15T04:17:20;97.00;;;24.23;;
18505;SDS011;9382;53.242;10.438;2023-02-15T04:19:48;59.97;;;23.03;;
18505;SDS011;9382;53.242;10.438;2023-02-15T04:22:32;60.80;;;23.03;;
18505;SDS011;9382;53.242;10.438;2023-02-15T04:25:16;53.13;;;23.00;;
18505;SDS011;9382;53.242;10.438;2023-02-15T04:27:44;61.60;;;21.70;;
18505;SDS011;9382;53.242;10.438;2023-02-15T04:30:12;68.60;;;23.13;;
18505;SDS011;9382;53.242;10.438;2023-02-15T04:32:40;60.60;;;22.40;;
18505;SDS011;9382;53.242;10.438;2023-02-15T04:35:08;54.03;;;23.50;;
18505;SDS011;9382;53.242;10.438;2023-02-15T04:37:36;58.17;;;23.00;;
18505;SDS011;9382;53.242;10.438;2023-02-15T04:40:03;58.53;;;23.27;;
18505;SDS011;9382;53.242;10.438;2023-02-15T04:42:31;67.33;;;22.53;;
18505;SDS011;9382;53.242;10.438;2023-02-15T04:44:58;47.97;;;22.80;;
18505;SDS011;9382;53.242;10.438;2023-02-15T04:47:25;62.03;;;22.90;;
18505;SDS011;9382;53.242;10.438;2023-02-15T04:49:52;67.10;;;23.13;;
18505;SDS011;9382;53.242;10.438;2023-02-15T04:52:20;56.90;;;22.60;;
18505;SDS011;9382;53.242;10.438;2023-02-15T04:54:47;56.23;;;24.10;;
18505;SDS011;9382;53.242;10.438;2023-02-15T04:57:14;52.00;;;23.07;;
18505;SDS011;9382;53.242;10.438;2023-02-15T04:59:40;55.20;;;23.10;;
18505;SDS011;9382;53.242;10.438;2023-02-15T05:02:07;56.60;;;23.80;;
18505;SDS011;9382;53.242;10.438;2023-02-15T05:04:34;61.23;;;24.80;;
18505;SDS011;9382;53.242;10.438;2023-02-15T05:07:01;61.33;;;24.30;;
18505;SDS011;9382;53.242;10.438;2023-02-15T05:09:29;55.80;;;23.23;;
18505;SDS011;9382;53.242;10.438;2023-02-15T05:11:56;56.60;;;22.87;;
18505;SDS011;9382;53.242;10.438;2023-02-15T05:14:23;58.83;;;22.73;;
18505;SDS011;9382;53.242;10.438;2023-02-15T05:16:49;55.17;;;23.13;;
18505;SDS011;9382;53.242;10.438;2023-02-15T05:19:16;52.00;;;23.00;;
18505;SDS011;9382;53.242;10.438;2023-02-15T05:21:43;58.43;;;26.40;;
18505;SDS011;9382;53.242;10.438;2023-02-15T05:24:10;67.20;;;25.80;;
18505;SDS011;9382;53.242;10.438;2023-02-15T05:26:55;67.90;;;25.97;;
18505;SDS011;9382;53.242;10.438;2023-02-15T05:29:39;65.77;;;27.17;;
18505;SDS011;9382;53.242;10.438;2023-02-15T05:32:06;59.30;;;26.37;;
18505;SDS011;9382;53.242;10.438;2023-02-15T05:34:33;59.43;;;25.57;;
18505;SDS011;9382;53.242;10.438;2023-02-15T05:36:59;57.50;;;24.97;;
18505;SDS011;9382;53.242;10.438;2023-02-15T05:39:26;58.30;;;23.87;;
18505;SDS011;9382;53.242;10.438;2023-02-15T05:41:53;60.97;;;25.40;;
18505;SDS011;9382;53.242;10.438;2023-02-15T05:44:21;77.17;;;25.40;;
18505;SDS011;9382;53.242;10.438;2023-02-15T05:46:47;55.03;;;25.07;;
18505;SDS011;9382;53.242;10.438;2023-02-15T05:49:14;55.37;;;25.20;;
18505;SDS011;9382;53.242;10.438;2023-02-15T05:51:41;63.90;;;24.97;;
18505;SDS011;9382;53.242;10.438;2023-02-15T05:54:08;59.87;;;26.50;;
18505;SDS011;9382;53.242;10.438;2023-02-15T05:56:34;166.03;;;28.80;;
18505;SDS011;9382;53.242;10.438;2023-02-15T05:59:01;64.67;;;26.10;;
18505;SDS011;9382;53.242;10.438;2023-02-15T06:01:29;62.77;;;25.60;;
18505;SDS011;9382;53.242;10.438;2023-02-15T06:03:56;63.47;;;25.30;;
18505;SDS011;9382;53.242;10.438;2023-02-15T06:06:23;62.80;;;26.53;;
18505;SDS011;9382;53.242;10.438;2023-02-15T06:08:49;70.67;;;26.93;;
18505;SDS011;9382;53.242;10.438;2023-02-15T06:11:16;65.00;;;25.77;;
18505;SDS011;9382;53.242;10.438;2023-02-15T06:13:43;60.10;;;26.33;;
18505;SDS011;9382;53.242;10.438;2023-02-15T06:16:09;72.00;;;24.97;;
18505;SDS011;9382;53.242;10.438;2023-02-15T06:18:37;71.33;;;24.40;;
18505;SDS011;9382;53.242;10.438;2023-02-15T06:21:04;62.00;;;23.57;;
18505;SDS011;9382;53.242;10.438;2023-02-15T06:23:31;66.90;;;24.57;;
18505;SDS011;9382;53.242;10.438;2023-02-15T06:25:58;55.13;;;24.50;;
18505;SDS011;9382;53.242;10.438;2023-02-15T06:28:24;52.77;;;24.50;;
18505;SDS011;9382;53.242;10.438;2023-02-15T06:30:51;115.60;;;26.13;;
18505;SDS011;9382;53.242;10.438;2023-02-15T06:33:18;112.40;;;27.87;;
18505;SDS011;9382;53.242;10.438;2023-02-15T06:35:46;54.23;;;23.93;;
18505;SDS011;9382;53.242;10.438;2023-02-15T06:38:13;93.47;;;26.50;;
18505;SDS011;9382;53.242;10.438;2023-02-15T06:40:40;61.47;;;25.83;;
18505;SDS011;9382;53.242;10.438;2023-02-15T06:43:06;60.23;;;26.43;;
18505;SDS011;9382;53.242;10.438;2023-02-15T06:45:33;80.27;;;26.97;;
18505;SDS011;9382;53.242;10.438;2023-02-15T06:48:00;61.57;;;26.40;;
18505;SDS011;9382;53.242;10.438;2023-02-15T06:50:26;59.43;;;26.80;;
18505;SDS011;9382;53.242;10.438;2023-02-15T06:52:56;67.07;;;26.63;;
18505;SDS011;9382;53.242;10.438;2023-02-15T06:55:23;69.63;;;26.13;;
18505;SDS011;9382;53.242;10.438;2023-02-15T06:57:50;68.30;;;26.27;;
18505;SDS011;9382;53.242;10.438;2023-02-15T07:00:17;62.53;;;26.53;;
18505;SDS011;9382;53.242;10.438;2023-02-15T07:02:44;74.87;;;24.37;;
18505;SDS011;9382;53.242;10.438;2023-02-15T07:05:11;71.93;;;25.20;;
18505;SDS011;9382;53.242;10.438;2023-02-15T07:07:37;62.93;;;25.90;;
18505;SDS011;9382;53.242;10.438;2023-02-15T07:10:06;58.70;;;26.07;;
18505;SDS011;9382;53.242;10.438;2023-02-15T07:12:33;60.43;;;26.20;;
18505;SDS011;9382;53.242;10.438;2023-02-15T07:15:09;59.00;;;26.40;;
18505;SDS011;9382;53.242;10.438;2023-02-15T07:17:37;57.17;;;26.47;;
18505;SDS011;9382;53.242;10.438;2023-02-15T07:20:04;59.73;;;24.70;;
18505;SDS011;9382;53.242;10.438;2023-02-15T07:22:33;60.93;;;25.83;;
18505;SDS011;9382;53.242;10.438;2023-02-15T07:25:01;59.77;;;23.97;;
18505;SDS011;9382;53.242;10.438;2023-02-15T07:27:29;63.07;;;24.90;;
18505;SDS011;9382;53.242;10.438;2023-02-15T07:29:57;55.20;;;24.20;;
18505;SDS011;9382;53.242;10.438;2023-02-15T07:32:25;60.20;;;25.50;;
18505;SDS011;9382;53.242;10.438;2023-02-15T07:34:54;47.23;;;22.67;;
18505;SDS011;9382;53.242;10.438;2023-02-15T07:37:21;59.83;;;23.87;;
18505;SDS011;9382;53.242;10.438;2023-02-15T07:39:47;59.43;;;23.23;;
18505;SDS011;9382;53.242;10.438;2023-02-15T07:42:14;52.73;;;22.80;;
18505;SDS011;9382;53.242;10.438;2023-02-15T07:44:44;53.20;;;23.57;;
18505;SDS011;9382;53.242;10.438;2023-02-15T07:47:10;48.73;;;24.33;;
18505;SDS011;9382;53.242;10.438;2023-02-15T07:49:38;47.13;;;24.90;;
18505;SDS011;9382;53.242;10.438;2023-02-15T07:52:04;51.07;;;24.23;;
18505;SDS011;9382;53.242;10.438;2023-02-15T07:54:31;52.57;;;25.33;;
18505;SDS011;9382;53.242;10.438;2023-02-15T07:56:58;53.97;;;25.57;;
18505;SDS011;9382;53.242;10.438;2023-02-15T07:59:26;51.33;;;23.57;;
18505;SDS011;9382;53.242;10.438;2023-02-15T08:01:54;52.73;;;25.40;;
18505;SDS011;9382;53.242;10.438;2023-02-15T08:04:22;50.77;;;25.03;;
18505;SDS011;9382;53.242;10.438;2023-02-15T08:06:51;52.00;;;25.60;;
18505;SDS011;9382;53.242;10.438;2023-02-15T08:09:19;113.80;;;26.10;;
18505;SDS011;9382;53.242;10.438;2023-02-15T08:11:46;55.10;;;25.83;;
18505;SDS011;9382;53.242;10.438;2023-02-15T08:14:14;61.87;;;24.87;;
18505;SDS011;9382;53.242;10.438;2023-02-15T08:16:42;80.00;;;26.67;;
18505;SDS011;9382;53.242;10.438;2023-02-15T08:19:12;52.70;;;24.77;;
18505;SDS011;9382;53.242;10.438;2023-02-15T08:21:42;56.13;;;24.00;;
18505;SDS011;9382;53.242;10.438;2023-02-15T08:24:11;56.30;;;24.70;;
18505;SDS011;9382;53.242;10.438;2023-02-15T08:26:39;51.00;;;24.23;;
18505;SDS011;9382;53.242;10.438;2023-02-15T08:29:07;56.33;;;27.20;;
18505;SDS011;9382;53.242;10.438;2023-02-15T08:31:35;51.73;;;24.23;;
18505;SDS011;9382;53.242;10.438;2023-02-15T08:34:03;50.23;;;25.27;;
18505;SDS011;9382;53.242;10.438;2023-02-15T08:36:31;49.57;;;25.40;;
18505;SDS011;9382;53.242;10.438;2023-02-15T08:38:59;51.67;;;26.57;;
18505;SDS011;9382;53.242;10.438;2023-02-15T08:41:27;47.43;;;25.43;;
18505;SDS011;9382;53.242;10.438;2023-02-15T08:43:56;52.93;;;26.30;;
18505;SDS011;9382;53.242;10.438;2023-02-15T08:46:24;50.10;;;26.33;;
18505;SDS011;9382;53.242;10.438;2023-02-15T08:48:52;49.43;;;26.23;;
18505;SDS011;9382;53.242;10.438;2023-02-15T08:51:20;52.00;;;24.37;;
18505;SDS011;9382;53.242;10.438;2023-02-15T08:53:50;46.70;;;25.13;;
18505;SDS011;9382;53.242;10.438;2023-02-15T08:56:18;49.10;;;25.23;;
18505;SDS011;9382;53.242;10.438;2023-02-15T08:58:47;49.73;;;25.20;;
18505;SDS011;9382;53.242;10.438;2023-02-15T09:01:14;45.50;;;24.40;;
18505;SDS011;9382;53.242;10.438;2023-02-15T09:03:43;75.73;;;25.80;;
18505;SDS011;9382;53.242;10.438;2023-02-15T09:06:10;47.53;;;25.33;;
18505;SDS011;9382;53.242;10.438;2023-02-15T09:08:37;47.27;;;24.43;;
18505;SDS011;9382;53.242;10.438;2023-02-15T09:11:10;51.63;;;24.87;;
18505;SDS011;9382;53.242;10.438;2023-02-15T09:13:38;42.57;;;23.03;;
18505;SDS011;9382;53.242;10.438;2023-02-15T09:16:06;46.20;;;25.00;;
18505;SDS011;9382;53.242;10.438;2023-02-15T09:18:34;50.30;;;26.10;;
18505;SDS011;9382;53.242;10.438;2023-02-15T09:21:06;46.03;;;25.57;;
18505;SDS011;9382;53.242;10.438;2023-02-15T09:23:34;44.37;;;25.07;;
18505;SDS011;9382;53.242;10.438;2023-02-15T09:26:02;47.23;;;25.97;;
18505;SDS011;9382;53.242;10.438;2023-02-15T09:28:32;45.93;;;26.63;;
18505;SDS011;9382;53.242;10.438;2023-02-15T09:31:04;45.73;;;26.50;;
18505;SDS011;9382;53.242;10.438;2023-02-15T09:33:32;44.37;;;25.07;;
18505;SDS011;9382;53.242;10.438;2023-02-15T09:36:01;44.23;;;25.03;;
18505;SDS011;9382;53.242;10.438;2023-02-15T09:38:27;45.67;;;26.20;;
18505;SDS011;9382;53.242;10.438;2023-02-15T09:40:56;41.83;;;24.40;;
18505;SDS011;9382;53.242;10.438;2023-02-15T09:43:42;41.83;;;24.37;;
18505;SDS011;9382;53.242;10.438;2023-02-15T09:46:27;43.03;;;24.00;;
18505;SDS011;9382;53.242;10.438;2023-02-15T09:49:09;40.13;;;22.80;;
18505;SDS011;9382;53.242;10.438;2023-02-15T09:51:50;40.57;;;22.60;;
18505;SDS011;9382;53.242;10.438;2023-02-15T09:54:33;38.10;;;22.37;;
18505;SDS011;9382;53.242;10.438;2023-02-15T09:57:13;39.97;;;23.00;;
18505;SDS011;9382;53.242;10.438;2023-02-15T09:59:52;42.93;;;23.30;;
18505;SDS011;9382;53.242;10.438;2023-02-15T10:02:30;40.97;;;23.80;;
18505;SDS011;9382;53.242;10.438;2023-02-15T10:05:11;42.53;;;24.30;;
18505;SDS011;9382;53.242;10.438;2023-02-15T10:07:54;43.13;;;23.00;;
18505;SDS011;9382;53.242;10.438;2023-02-15T10:10:39;47.60;;;22.80;;
18505;SDS011;9382;53.242;10.438;2023-02-15T10:13:17;39.63;;;23.73;;
18505;SDS011;9382;53.242;10.438;2023-02-15T10:15:56;39.03;;;22.77;;
18505;SDS011;9382;53.242;10.438;2023-02-15T10:18:38;37.90;;;22.67;;
18505;SDS011;9382;53.242;10.438;2023-02-15T10:21:17;38.37;;;22.10;;
18505;SDS011;9382;53.242;10.438;2023-02-15T10:23:59;38.63;;;22.27;;
18505;SDS011;9382;53.242;10.438;2023-02-15T10:26:47;37.83;;;21.70;;
18505;SDS011;9382;53.242;10.438;2023-02-15T10:29:17;37.87;;;22.60;;
18505;SDS011;9382;53.242;10.438;2023-02-15T10:31:56;36.57;;;22.30;;
18505;SDS011;9382;53.242;10.438;2023-02-15T10:34:29;38.43;;;22.20;;
18505;SDS011;9382;53.242;10.438;2023-02-15T10:37:08;37.73;;;22.90;;
18505;SDS011;9382;53.242;10.438;2023-02-15T10:39:51;36.97;;;21.83;;
18505;SDS011;9382;53.242;10.438;2023-02-15T10:42:28;34.80;;;21.20;;
18505;SDS011;9382;53.242;10.438;2023-02-15T10:45:06;34.53;;;21.23;;
18505;SDS011;9382;53.242;10.438;2023-02-15T10:47:53;33.40;;;21.13;;
18505;SDS011;9382;53.242;10.438;2023-02-15T10:50:33;33.73;;;20.67;;
18505;SDS011;9382;53.242;10.438;2023-02-15T10:53:14;33.73;;;20.73;;
18505;SDS011;9382;53.242;10.438;2023-02-15T10:55:55;30.53;;;19.97;;
18505;SDS011;9382;53.242;10.438;2023-02-15T10:58:31;34.10;;;21.13;;
18505;SDS011;9382;53.242;10.438;2023-02-15T11:01:11;32.73;;;20.43;;
18505;SDS011;9382;53.242;10.438;2023-02-15T11:03:55;32.93;;;20.70;;
18505;SDS011;9382;53.242;10.438;2023-02-15T11:06:36;33.57;;;20.37;;
18505;SDS011;9382;53.242;10.438;2023-02-15T11:09:08;32.53;;;19.67;;
18505;SDS011;9382;53.242;10.438;2023-02-15T11:11:40;32.17;;;19.90;;
18505;SDS011;9382;53.242;10.438;2023-02-15T11:14:10;32.00;;;19.83;;
18505;SDS011;9382;53.242;10.438;2023-02-15T11:16:41;33.37;;;20.43;;
18505;SDS011;9382;53.242;10.438;2023-02-15T11:19:12;32.20;;;20.00;;
18505;SDS011;9382;53.242;10.438;2023-02-15T11:21:46;32.63;;;20.37;;
18505;SDS011;9382;53.242;10.438;2023-02-15T11:24:17;28.77;;;19.37;;
18505;SDS011;9382;53.242;10.438;2023-02-15T11:26:46;30.73;;;19.57;;
18505;SDS011;9382;53.242;10.438;2023-02-15T11:29:18;33.30;;;19.63;;
18505;SDS011;9382;53.242;10.438;2023-02-15T11:31:53;29.93;;;19.40;;
18505;SDS011;9382;53.242;10.438;2023-02-15T11:34:23;31.43;;;19.90;;
18505;SDS011;9382;53.242;10.438;2023-02-15T11:36:53;28.20;;;18.73;;
18505;SDS011;9382;53.242;10.438;2023-02-15T11:39:24;28.90;;;18.47;;
18505;SDS011;9382;53.242;10.438;2023-02-15T11:41:55;28.27;;;18.40;;
18505;SDS011;9382;53.242;10.438;2023-02-15T11:44:26;29.73;;;18.90;;
18505;SDS011;9382;53.242;10.438;2023-02-15T11:46:58;28.80;;;17.57;;
18505;SDS011;9382;53.242;10.438;2023-02-15T11:49:29;26.30;;;15.73;;
18505;SDS011;9382;53.242;10.438;2023-02-15T11:51:57;25.73;;;16.33;;
18505;SDS011;9382;53.242;10.438;2023-02-15T11:54:27;26.03;;;16.13;;
18505;SDS011;9382;53.242;10.438;2023-02-15T11:56:56;24.00;;;15.30;;
18505;SDS011;9382;53.242;10.438;2023-02-15T11:59:27;21.93;;;14.53;;
18505;SDS011;9382;53.242;10.438;2023-02-15T12:01:58;22.10;;;14.20;;
18505;SDS011;9382;53.242;10.438;2023-02-15T12:04:25;24.97;;;14.90;;
18505;SDS011;9382;53.242;10.438;2023-02-15T12:06:59;24.43;;;14.13;;
18505;SDS011;9382;53.242;10.438;2023-02-15T12:09:30;22.60;;;14.30;;
18505;SDS011;9382;53.242;10.438;2023-02-15T12:12:19;20.60;;;13.73;;
18505;SDS011;9382;53.242;10.438;2023-02-15T12:14:48;24.57;;;14.57;;
18505;SDS011;9382;53.242;10.438;2023-02-15T12:17:17;21.30;;;13.27;;
18505;SDS011;9382;53.242;10.438;2023-02-15T12:19:45;20.47;;;13.50;;
18505;SDS011;9382;53.242;10.438;2023-02-15T12:22:20;21.67;;;14.30;;
18505;SDS011;9382;53.242;10.438;2023-02-15T12:24:50;18.97;;;12.63;;
18505;SDS011;9382;53.242;10.438;2023-02-15T12:27:20;18.90;;;12.90;;
18505;SDS011;9382;53.242;10.438;2023-02-15T12:29:50;19.77;;;13.30;;
18505;SDS011;9382;53.242;10.438;2023-02-15T12:32:20;18.03;;;12.23;;
18505;SDS011;9382;53.242;10.438;2023-02-15T12:34:51;19.13;;;12.90;;
18505;SDS011;9382;53.242;10.438;2023-02-15T12:37:26;14.93;;;11.60;;
18505;SDS011;9382;53.242;10.438;2023-02-15T12:39:56;17.67;;;12.90;;
18505;SDS011;9382;53.242;10.438;2023-02-15T12:42:25;17.27;;;12.73;;
18505;SDS011;9382;53.242;10.438;2023-02-15T12:44:55;16.57;;;12.40;;
18505;SDS011;9382;53.242;10.438;2023-02-15T12:47:24;16.87;;;12.47;;
18505;SDS011;9382;53.242;10.438;2023-02-15T12:53:02;16.43;;;12.60;;
18505;SDS011;9382;53.242;10.438;2023-02-15T12:55:33;18.83;;;13.30;;
18505;SDS011;9382;53.242;10.438;2023-02-15T12:58:07;16.40;;;12.43;;
18505;SDS011;9382;53.242;10.438;2023-02-15T13:00:34;18.83;;;12.87;;
18505;SDS011;9382;53.242;10.438;2023-02-15T13:03:01;18.10;;;13.30;;
18505;SDS011;9382;53.242;10.438;2023-02-15T13:05:32;17.70;;;13.10;;
18505;SDS011;9382;53.242;10.438;2023-02-15T13:08:03;20.17;;;13.83;;
18505;SDS011;9382;53.242;10.438;2023-02-15T13:10:36;16.73;;;12.33;;
18505;SDS011;9382;53.242;10.438;2023-02-15T13:13:08;18.03;;;13.20;;
18505;SDS011;9382;53.242;10.438;2023-02-15T13:15:37;16.87;;;12.57;;
18505;SDS011;9382;53.242;10.438;2023-02-15T13:18:10;17.50;;;12.97;;
18505;SDS011;9382;53.242;10.438;2023-02-15T13:20:43;18.83;;;12.73;;
18505;SDS011;9382;53.242;10.438;2023-02-15T13:23:15;18.63;;;13.30;;
18505;SDS011;9382;53.242;10.438;2023-02-15T13:25:49;16.33;;;12.30;;
18505;SDS011;9382;53.242;10.438;2023-02-15T13:28:17;19.93;;;13.77;;
18505;SDS011;9382;53.242;10.438;2023-02-15T13:30:48;18.70;;;12.87;;
18505;SDS011;9382;53.242;10.438;2023-02-15T13:33:17;16.83;;;12.43;;
18505;SDS011;9382;53.242;10.438;2023-02-15T13:35:54;16.17;;;12.33;;
18505;SDS011;9382;53.242;10.438;2023-02-15T13:38:31;17.83;;;12.93;;
18505;SDS011;9382;53.242;10.438;2023-02-15T13:41:12;17.07;;;12.47;;
18505;SDS011;9382;53.242;10.438;2023-02-15T13:43:45;18.20;;;13.60;;
18505;SDS011;9382;53.242;10.438;2023-02-15T13:46:24;17.67;;;12.83;;
18505;SDS011;9382;53.242;10.438;2023-02-15T13:49:05;18.23;;;13.47;;
18505;SDS011;9382;53.242;10.438;2023-02-15T13:51:43;18.03;;;13.13;;
18505;SDS011;9382;53.242;10.438;2023-02-15T13:57:30;17.47;;;12.97;;
18505;SDS011;9382;53.242;10.438;2023-02-15T14:00:11;17.30;;;13.20;;
18505;SDS011;9382;53.242;10.438;2023-02-15T14:02:49;19.83;;;13.57;;
18505;SDS011;9382;53.242;10.438;2023-02-15T14:05:43;19.07;;;14.10;;
18505;SDS011;9382;53.242;10.438;2023-02-15T14:08:28;16.77;;;12.90;;
18505;SDS011;9382;53.242;10.438;2023-02-15T14:11:12;18.33;;;13.77;;
18505;SDS011;9382;53.242;10.438;2023-02-15T14:13:58;19.23;;;13.57;;
18505;SDS011;9382;53.242;10.438;2023-02-15T14:16:41;19.10;;;13.47;;
18505;SDS011;9382;53.242;10.438;2023-02-15T14:19:17;21.67;;;14.00;;
18505;SDS011;9382;53.242;10.438;2023-02-15T14:21:52;18.97;;;14.47;;
18505;SDS011;9382;53.242;10.438;2023-02-15T14:24:29;18.60;;;13.20;;
18505;SDS011;9382;53.242;10.438;2023-02-15T14:27:05;19.07;;;13.93;;
18505;SDS011;9382;53.242;10.438;2023-02-15T14:29:49;21.50;;;14.50;;
18505;SDS011;9382;53.242;10.438;2023-02-15T14:32:24;19.17;;;13.40;;
18505;SDS011;9382;53.242;10.438;2023-02-15T14:34:56;18.40;;;13.87;;
18505;SDS011;9382;53.242;10.438;2023-02-15T14:37:28;17.90;;;12.90;;
18505;SDS011;9382;53.242;10.438;2023-02-15T14:40:08;19.63;;;13.63;;
18505;SDS011;9382;53.242;10.438;2023-02-15T14:43:01;17.60;;;13.50;;
18505;SDS011;9382;53.242;10.438;2023-02-15T14:45:35;19.83;;;13.83;;
18505;SDS011;9382;53.242;10.438;2023-02-15T14:48:09;20.37;;;13.87;;
18505;SDS011;9382;53.242;10.438;2023-02-15T14:50:42;22.70;;;14.57;;
18505;SDS011;9382;53.242;10.438;2023-02-15T14:53:25;17.93;;;12.93;;
18505;SDS011;9382;53.242;10.438;2023-02-15T15:01:51;24.20;;;15.53;;
18505;SDS011;9382;53.242;10.438;2023-02-15T15:04:24;20.97;;;15.00;;
18505;SDS011;9382;53.242;10.438;2023-02-15T15:06:59;25.17;;;16.03;;